createdAt,value
2023-07-18T00:00:52.415Z,101714.75
2023-07-18T00:03:20.781Z,101716.41
2023-07-18T00:05:49.595Z,101707.81
2023-07-18T00:08:17.584Z,101712.00
2023-07-18T00:10:45.553Z,101718.31
2023-07-18T00:13:15.625Z,101719.38
2023-07-18T00:15:45.804Z,101725.66
2023-07-18T00:18:13.772Z,101725.03
2023-07-18T00:20:41.680Z,101731.34
2023-07-18T00:23:11.309Z,101732.19
2023-07-18T00:25:40.151Z,101734.91
2023-07-18T00:28:10.281Z,101734.91
2023-07-18T00:30:39.644Z,101731.59
2023-07-18T00:33:07.689Z,101730.50
2023-07-18T00:35:36.395Z,101731.34
2023-07-18T00:38:04.368Z,101724.19
2023-07-18T00:40:32.328Z,101725.03
2023-07-18T00:43:00.296Z,101721.47
2023-07-18T00:45:28.609Z,101714.34
2023-07-18T00:47:57.974Z,101709.72
2023-07-18T00:50:25.913Z,101714.34
2023-07-18T00:52:54.622Z,101709.72
2023-07-18T00:55:24.199Z,101701.53
2023-07-18T00:57:52.170Z,101707.81
2023-07-18T01:00:23.967Z,101707.00
2023-07-18T01:02:52.414Z,101696.28
2023-07-18T01:05:22.043Z,101699.84
2023-07-18T01:07:50.315Z,101692.69
2023-07-18T01:10:19.328Z,101693.53
2023-07-18T01:12:47.362Z,101694.38
2023-07-18T01:15:15.340Z,101691.84
2023-07-18T01:17:46.104Z,101698.16
2023-07-18T01:20:17.969Z,101699.00
2023-07-18T01:22:47.388Z,101701.75
2023-07-18T01:25:17.650Z,101698.16
2023-07-18T01:27:45.894Z,101689.13
2023-07-18T01:30:14.195Z,101689.13
2023-07-18T01:32:43.222Z,101691.84
2023-07-18T01:35:11.914Z,101688.28
2023-07-18T01:37:40.135Z,101689.13
2023-07-18T01:40:10.783Z,101682.81
2023-07-18T01:42:38.803Z,101678.19
2023-07-18T01:45:10.158Z,101678.19
2023-07-18T01:47:38.577Z,101680.94
2023-07-18T01:50:07.857Z,101681.97
2023-07-18T01:52:37.735Z,101675.47
2023-07-18T01:55:06.973Z,101675.69
2023-07-18T01:57:44.647Z,101677.34
2023-07-18T02:00:17.408Z,101678.19
2023-07-18T02:02:46.886Z,101662.84
2023-07-18T02:05:15.316Z,101661.16
2023-07-18T02:07:43.297Z,101665.59
2023-07-18T02:10:11.332Z,101657.00
2023-07-18T02:12:40.628Z,101663.69
2023-07-18T02:15:11.283Z,101658.44
2023-07-18T02:17:39.247Z,101660.97
2023-07-18T02:20:10.641Z,101665.59
2023-07-18T02:22:38.672Z,101667.28
2023-07-18T02:25:07.696Z,101665.59
2023-07-18T02:27:35.892Z,101660.34
2023-07-18T02:30:09.754Z,101656.78
2023-07-18T02:32:37.744Z,101656.78
2023-07-18T02:35:06.824Z,101659.28
2023-07-18T02:37:35.438Z,101656.78
2023-07-18T02:40:05.638Z,101652.13
2023-07-18T02:42:34.978Z,101654.06
2023-07-18T02:45:05.555Z,101655.94
2023-07-18T02:47:34.801Z,101655.09
2023-07-18T02:50:02.774Z,101643.13
2023-07-18T02:52:30.728Z,101649.66
2023-07-18T02:54:58.977Z,101649.66
2023-07-18T02:57:27.372Z,101652.38
2023-07-18T02:59:55.454Z,101649.66
2023-07-18T03:02:24.877Z,101645.03
2023-07-18T03:04:53.123Z,101653.22
2023-07-18T03:07:21.077Z,101655.09
2023-07-18T03:09:49.189Z,101648.81
2023-07-18T03:12:17.135Z,101647.75
2023-07-18T03:14:45.410Z,101648.81
2023-07-18T03:17:13.400Z,101651.31
2023-07-18T03:19:42.765Z,101650.47
2023-07-18T03:22:10.742Z,101648.59
2023-07-18T03:24:38.944Z,101649.66
2023-07-18T03:27:07.160Z,101654.06
2023-07-18T03:29:35.193Z,101648.34
2023-07-18T03:32:03.206Z,101639.75
2023-07-18T03:34:31.427Z,101650.47
2023-07-18T03:37:01.161Z,101650.47
2023-07-18T03:39:29.199Z,101648.59
2023-07-18T03:41:57.154Z,101651.53
2023-07-18T03:44:25.112Z,101650.47
2023-07-18T03:46:59.206Z,101652.13
2023-07-18T03:49:38.967Z,101651.31
2023-07-18T03:52:09.284Z,101652.97
2023-07-18T03:54:37.512Z,101648.34
2023-07-18T03:57:06.603Z,101646.66
2023-07-18T03:59:34.635Z,101654.06
2023-07-18T04:02:02.675Z,101643.13
2023-07-18T04:04:32.411Z,101640.16
2023-07-18T04:07:00.404Z,101639.31
2023-07-18T04:09:29.270Z,101639.31
2023-07-18T04:11:57.267Z,101635.75
2023-07-18T04:14:25.285Z,101637.41
2023-07-18T04:16:53.618Z,101630.53
2023-07-18T04:19:21.595Z,101641.22
2023-07-18T04:21:49.612Z,101636.81
2023-07-18T04:24:17.556Z,101643.13
2023-07-18T04:26:48.620Z,101645.63
2023-07-18T04:29:16.529Z,101642.03
2023-07-18T04:31:44.524Z,101636.59
2023-07-18T04:34:12.797Z,101641.22
2023-07-18T04:36:41.021Z,101647.50
2023-07-18T04:39:09.475Z,101642.88
2023-07-18T04:41:45.514Z,101642.88
2023-07-18T04:44:24.429Z,101647.50
2023-07-18T04:46:53.895Z,101649.19
2023-07-18T04:49:23.413Z,101636.19
2023-07-18T04:51:52.595Z,101638.25
2023-07-18T04:54:20.785Z,101643.72
2023-07-18T04:56:49.089Z,101631.97
2023-07-18T04:59:17.213Z,101634.69
2023-07-18T05:01:46.633Z,101629.47
2023-07-18T05:04:14.664Z,101626.72
2023-07-18T05:06:42.949Z,101628.38
2023-07-18T05:09:10.967Z,101619.34
2023-07-18T05:11:38.888Z,101616.63
2023-07-18T05:14:06.827Z,101619.34
2023-07-18T05:16:35.063Z,101626.72
2023-07-18T05:19:04.378Z,101620.44
2023-07-18T05:21:32.441Z,101616.00
2023-07-18T05:24:00.449Z,101618.53
2023-07-18T05:26:28.681Z,101616.00
2023-07-18T05:28:56.647Z,101623.16
2023-07-18T05:31:24.794Z,101620.84
2023-07-18T05:33:53.134Z,101624.00
2023-07-18T05:36:22.731Z,101626.72
2023-07-18T05:38:50.674Z,101634.94
2023-07-18T05:41:18.990Z,101632.78
2023-07-18T05:43:47.140Z,101632.19
2023-07-18T05:46:15.154Z,101633.84
2023-07-18T05:48:43.204Z,101640.41
2023-07-18T05:51:11.166Z,101638.47
2023-07-18T05:53:40.895Z,101637.66
2023-07-18T05:56:09.763Z,101645.63
2023-07-18T05:58:38.125Z,101648.13
2023-07-18T06:01:15.826Z,101644.78
2023-07-18T06:03:44.039Z,101639.09
2023-07-18T06:06:12.397Z,101637.41
2023-07-18T06:08:42.491Z,101643.13
2023-07-18T06:11:10.427Z,101641.00
2023-07-18T06:13:38.514Z,101641.00
2023-07-18T06:16:06.919Z,101643.72
2023-07-18T06:18:35.074Z,101637.41
2023-07-18T06:21:03.940Z,101644.56
2023-07-18T06:23:32.000Z,101643.72
2023-07-18T06:26:01.357Z,101639.09
2023-07-18T06:28:29.254Z,101632.19
2023-07-18T06:30:58.205Z,101634.69
2023-07-18T06:33:26.779Z,101627.34
2023-07-18T06:35:55.167Z,101633.63
2023-07-18T06:38:23.156Z,101627.34
2023-07-18T06:40:51.143Z,101627.34
2023-07-18T06:43:20.522Z,101631.75
2023-07-18T06:45:48.931Z,101628.16
2023-07-18T06:48:17.032Z,101611.59
2023-07-18T06:50:46.842Z,101614.50
2023-07-18T06:53:15.525Z,101615.34
2023-07-18T06:55:43.838Z,101612.63
2023-07-18T06:58:11.788Z,101610.94
2023-07-18T07:00:41.639Z,101618.09
2023-07-18T07:03:09.861Z,101620.81
2023-07-18T07:05:39.138Z,101609.88
2023-07-18T07:08:10.126Z,101610.72
2023-07-18T07:10:39.083Z,101608.84
2023-07-18T07:13:07.022Z,101600.63
2023-07-18T07:15:35.327Z,101608.84
2023-07-18T07:18:05.261Z,101605.25
2023-07-18T07:20:33.358Z,101605.25
2023-07-18T07:23:01.457Z,101601.47
2023-07-18T07:25:30.453Z,101602.53
2023-07-18T07:27:58.464Z,101598.75
2023-07-18T07:30:26.611Z,101589.72
2023-07-18T07:32:54.676Z,101589.72
2023-07-18T07:35:24.853Z,101600.44
2023-07-18T07:37:53.381Z,101597.91
2023-07-18T07:40:21.540Z,101596.00
2023-07-18T07:42:49.507Z,101589.50
2023-07-18T07:45:17.847Z,101583.78
2023-07-18T07:47:45.880Z,101578.56
2023-07-18T07:50:14.484Z,101570.13
2023-07-18T07:52:44.170Z,101580.22
2023-07-18T07:55:12.630Z,101570.13
2023-07-18T07:57:40.977Z,101567.38
2023-07-18T08:00:11.271Z,101570.13
2023-07-18T08:02:39.179Z,101570.97
2023-07-18T08:05:07.831Z,101571.81
2023-07-18T08:07:35.824Z,101569.06
2023-07-18T08:10:05.562Z,101572.84
2023-07-18T08:12:33.500Z,101570.97
2023-07-18T08:15:01.885Z,101564.44
2023-07-18T08:17:29.960Z,101568.22
2023-07-18T08:19:57.895Z,101569.06
2023-07-18T08:22:25.945Z,101555.41
2023-07-18T08:24:53.974Z,101537.22
2023-07-18T08:27:23.327Z,101553.72
2023-07-18T08:29:51.292Z,101561.72
2023-07-18T08:32:19.314Z,101554.56
2023-07-18T08:34:47.578Z,101554.34
2023-07-18T08:37:15.563Z,101556.25
2023-07-18T08:39:43.524Z,101557.09
2023-07-18T08:42:11.488Z,101547.00
2023-07-18T08:44:41.123Z,101549.72
2023-07-18T08:47:09.535Z,101541.53
2023-07-18T08:49:37.752Z,101531.50
2023-07-18T08:52:06.532Z,101543.44
2023-07-18T08:54:35.714Z,101544.25
2023-07-18T08:57:04.698Z,101540.47
2023-07-18T08:59:33.257Z,101530.59
2023-07-18T09:02:02.739Z,101534.19
2023-07-18T09:04:30.753Z,101534.38
2023-07-18T09:06:59.479Z,101527.03
2023-07-18T09:09:27.450Z,101515.25
2023-07-18T09:12:01.825Z,101512.53
2023-07-18T09:14:33.026Z,101507.53
2023-07-18T09:17:05.193Z,101505.16
2023-07-18T09:19:40.613Z,101504.97
2023-07-18T09:22:08.901Z,101493.19
2023-07-18T09:24:38.078Z,101489.63
2023-07-18T09:27:06.807Z,101487.94
2023-07-18T09:29:34.814Z,101486.88
2023-07-18T09:32:04.603Z,101487.72
2023-07-18T09:34:33.100Z,101480.34
2023-07-18T09:37:02.395Z,101485.81
2023-07-18T09:39:30.497Z,101489.63
2023-07-18T09:41:58.547Z,101488.56
2023-07-18T09:44:33.320Z,101492.09
2023-07-18T09:47:03.408Z,101497.56
2023-07-18T09:49:34.030Z,101496.75
2023-07-18T09:52:04.853Z,101501.13
2023-07-18T09:54:32.844Z,101497.56
2023-07-18T09:57:01.630Z,101501.13
2023-07-18T09:59:29.626Z,101503.88
2023-07-18T10:01:57.606Z,101503.88
2023-07-18T10:04:27.250Z,101497.56
2023-07-18T10:06:56.697Z,101489.63
2023-07-18T10:09:25.477Z,101492.09
2023-07-18T10:12:10.089Z,101492.09
2023-07-18T10:14:57.986Z,101489.63
2023-07-18T10:17:39.335Z,101497.56
2023-07-18T10:20:20.945Z,101485.81
2023-07-18T10:22:50.382Z,101490.22
2023-07-18T10:25:21.864Z,101489.16
2023-07-18T10:27:50.449Z,101475.50
2023-07-18T10:30:19.672Z,101474.44
2023-07-18T10:32:54.452Z,101468.13
2023-07-18T10:35:25.965Z,101446.28
2023-07-18T10:37:55.306Z,101449.84
2023-07-18T10:40:36.017Z,101450.06
2023-07-18T10:43:04.169Z,101447.09
2023-07-18T10:45:34.707Z,101444.38
2023-07-18T10:48:02.759Z,101437.22
2023-07-18T10:50:32.525Z,101439.75
2023-07-18T10:53:00.539Z,101435.13
2023-07-18T10:55:28.870Z,101437.00
2023-07-18T10:57:57.078Z,101433.22
2023-07-18T11:00:26.668Z,101432.38
2023-07-18T11:02:54.622Z,101434.28
2023-07-18T11:05:22.959Z,101433.22
2023-07-18T11:07:52.241Z,101431.34
2023-07-18T11:10:20.218Z,101420.41
2023-07-18T11:12:48.668Z,101420.41
2023-07-18T11:15:16.671Z,101417.66
2023-07-18T11:17:45.442Z,101409.47
2023-07-18T11:20:13.839Z,101401.50
2023-07-18T11:22:42.195Z,101400.44
2023-07-18T11:25:12.087Z,101394.72
2023-07-18T11:27:40.097Z,101374.84
2023-07-18T11:30:11.063Z,101386.78
2023-07-18T11:32:40.213Z,101384.88
2023-07-18T11:35:09.702Z,101378.78
2023-07-18T11:37:42.553Z,101378.78
2023-07-18T11:40:13.640Z,101387.34
2023-07-18T11:42:49.180Z,101386.31
2023-07-18T11:45:21.688Z,101384.41
2023-07-18T11:47:50.943Z,101380.84
2023-07-18T11:50:20.053Z,101372.63
2023-07-18T11:52:48.680Z,101373.47
2023-07-18T11:55:18.558Z,101357.09
2023-07-18T11:57:46.656Z,101351.41
2023-07-18T12:00:15.586Z,101355.19
2023-07-18T12:02:45.221Z,101361.50
2023-07-18T12:05:15.229Z,101347.81
2023-07-18T12:07:44.384Z,101347.81
2023-07-18T12:10:12.870Z,101357.69
2023-07-18T12:12:42.457Z,101356.88
2023-07-18T12:15:12.005Z,101359.81
2023-07-18T12:17:40.081Z,101348.88
2023-07-18T12:20:09.162Z,101354.34
2023-07-18T12:22:38.820Z,101349.72
2023-07-18T12:25:07.550Z,101358.97
2023-07-18T12:27:35.510Z,101350.16
2023-07-18T12:30:06.923Z,101362.53
2023-07-18T12:32:34.960Z,101358.13
2023-07-18T12:35:03.714Z,101358.34
2023-07-18T12:37:31.763Z,101349.09
2023-07-18T12:39:59.769Z,101350.78
2023-07-18T12:42:27.755Z,101339.00
2023-07-18T12:44:56.016Z,101334.38
2023-07-18T12:47:25.565Z,101325.13
2023-07-18T12:52:24.358Z,101330.59
2023-07-18T12:54:52.631Z,101317.97
2023-07-18T12:57:20.639Z,101316.31
2023-07-18T12:59:48.655Z,101305.38
2023-07-18T13:02:16.834Z,101315.25
2023-07-18T13:04:46.620Z,101309.78
2023-07-18T13:07:14.842Z,101292.56
2023-07-18T13:09:42.793Z,101294.44
2023-07-18T13:12:11.767Z,101301.59
2023-07-18T13:14:39.692Z,101300.75
2023-07-18T13:17:07.959Z,101296.97
2023-07-18T13:19:35.926Z,101296.97
2023-07-18T13:22:05.747Z,101291.50
2023-07-18T13:24:33.731Z,101287.09
2023-07-18T13:27:01.766Z,101275.94
2023-07-18T13:29:29.719Z,101263.31
2023-07-18T13:31:57.749Z,101254.28
2023-07-18T13:34:25.712Z,101255.97
2023-07-18T13:36:53.996Z,101246.94
2023-07-18T13:39:23.560Z,101243.13
2023-07-18T13:41:52.506Z,101234.94
2023-07-18T13:44:20.876Z,101221.50
2023-07-18T13:46:49.270Z,101212.25
2023-07-18T13:49:17.301Z,101207.47
2023-07-18T13:51:45.275Z,101216.03
2023-07-18T13:54:13.204Z,101211.41
2023-07-18T13:56:42.884Z,101209.72
2023-07-18T13:59:10.815Z,101205.94
2023-07-18T14:01:38.822Z,101199.63
2023-07-18T14:04:07.753Z,101194.16
2023-07-18T14:06:36.081Z,101188.72
2023-07-18T14:09:04.290Z,101185.97
2023-07-18T14:11:32.313Z,101182.19
2023-07-18T14:14:01.785Z,101174.00
2023-07-18T14:16:30.083Z,101164.94
2023-07-18T14:18:58.870Z,101158.44
2023-07-18T14:21:26.971Z,101153.78
2023-07-18T14:23:55.171Z,101139.28
2023-07-18T14:26:23.458Z,101152.97
2023-07-18T14:28:51.441Z,101152.97
2023-07-18T14:31:20.837Z,101145.81
2023-07-18T14:34:04.814Z,101142.03
2023-07-18T14:36:34.590Z,101155.69
2023-07-18T14:39:02.602Z,101155.69
2023-07-18T14:41:30.531Z,101147.50
2023-07-18T14:43:58.814Z,101147.50
2023-07-18T14:46:28.250Z,101140.13
2023-07-18T14:48:56.212Z,101134.66
2023-07-18T14:51:24.181Z,101128.13
2023-07-18T14:53:52.275Z,101133.81
2023-07-18T14:56:20.976Z,101137.41
2023-07-18T14:58:49.147Z,101127.75
2023-07-18T15:01:17.792Z,101142.88
2023-07-18T15:03:47.121Z,101140.13
2023-07-18T15:06:15.074Z,101145.59
2023-07-18T15:08:43.016Z,101138.22
2023-07-18T15:11:11.489Z,101130.75
2023-07-18T15:13:39.691Z,101133.81
2023-07-18T15:16:07.711Z,101131.94
2023-07-18T15:18:35.741Z,101135.50
2023-07-18T15:21:05.931Z,101136.56
2023-07-18T15:23:34.449Z,101131.94
2023-07-18T15:26:02.683Z,101126.47
2023-07-18T15:28:30.659Z,101116.38
2023-07-18T15:30:58.762Z,101119.94
2023-07-18T15:33:27.817Z,101114.47
2023-07-18T15:35:56.498Z,101105.44
2023-07-18T15:38:25.878Z,101109.00
2023-07-18T15:40:53.971Z,101102.72
2023-07-18T15:43:21.955Z,101095.34
2023-07-18T15:45:50.704Z,101101.66
2023-07-18T15:48:18.870Z,101090.94
2023-07-18T15:50:46.829Z,101092.63
2023-07-18T15:53:15.016Z,101083.59
2023-07-18T15:55:44.335Z,101080.84
2023-07-18T15:58:12.334Z,101077.28
2023-07-18T16:00:40.296Z,101070.97
2023-07-18T16:03:08.332Z,101069.09
2023-07-18T16:05:36.663Z,101070.75
2023-07-18T16:08:04.878Z,101065.28
2023-07-18T16:10:32.819Z,101058.38
2023-07-18T16:13:02.126Z,101052.06
2023-07-18T16:15:30.414Z,101059.00
2023-07-18T16:18:04.028Z,101047.00
2023-07-18T16:20:32.939Z,101043.66
2023-07-18T16:23:01.039Z,101039.84
2023-07-18T16:25:29.002Z,101002.16
2023-07-18T16:27:56.935Z,101036.88
2023-07-18T16:30:26.338Z,101035.22
2023-07-18T16:32:55.851Z,101028.94
2023-07-18T16:35:24.283Z,101029.75
2023-07-18T16:37:52.263Z,101021.56
2023-07-18T16:40:21.388Z,101028.66
2023-07-18T16:42:49.405Z,101025.94
2023-07-18T16:45:17.466Z,101019.66
2023-07-18T16:47:46.899Z,101015.00
2023-07-18T16:50:14.972Z,101008.75
2023-07-18T16:52:43.011Z,101007.91
2023-07-18T16:55:11.055Z,101010.63
2023-07-18T16:57:39.082Z,101003.28
2023-07-18T17:00:10.764Z,101003.28
2023-07-18T17:02:38.716Z,101001.59
2023-07-18T17:05:09.140Z,101000.53
2023-07-18T17:07:37.067Z,100992.34
2023-07-18T17:10:05.581Z,100994.25
2023-07-18T17:12:33.686Z,100990.66
2023-07-18T17:15:01.592Z,100986.88
2023-07-18T17:17:29.629Z,100986.03
2023-07-18T17:20:07.409Z,100982.47
2023-07-18T17:22:37.565Z,100992.34
2023-07-18T17:25:06.533Z,100971.53
2023-07-18T17:27:34.556Z,100981.41
2023-07-18T17:30:03.210Z,100979.75
2023-07-18T17:32:31.435Z,100982.47
2023-07-18T17:34:59.422Z,100977.00
2023-07-18T17:37:27.419Z,100973.22
2023-07-18T17:39:56.874Z,100975.09
2023-07-18T17:42:24.836Z,100966.06
2023-07-18T17:44:53.149Z,100966.91
2023-07-18T17:47:21.242Z,100971.53
2023-07-18T17:49:49.227Z,100973.22
2023-07-18T17:52:17.787Z,100967.97
2023-07-18T17:54:46.609Z,100972.38
2023-07-18T17:57:15.995Z,100971.28
2023-07-18T17:59:43.950Z,100973.22
2023-07-18T18:02:12.093Z,100971.53
2023-07-18T18:04:40.466Z,100967.13
2023-07-18T18:07:08.647Z,100967.13
2023-07-18T18:09:37.516Z,100963.34
2023-07-18T18:12:05.971Z,100963.34
2023-07-18T18:14:35.593Z,100966.91
2023-07-18T18:17:03.668Z,100965.00
2023-07-18T18:19:31.949Z,100959.53
2023-07-18T18:21:59.926Z,100954.09
2023-07-18T18:24:27.895Z,100960.34
2023-07-18T18:26:55.870Z,100958.72
2023-07-18T18:29:26.903Z,100958.72
2023-07-18T18:31:56.367Z,100953.25
2023-07-18T18:34:24.360Z,100955.97
2023-07-18T18:36:52.315Z,100956.81
2023-07-18T18:39:21.255Z,100953.25
2023-07-18T18:41:49.249Z,100958.72
2023-07-18T18:44:17.191Z,100966.91
2023-07-18T18:46:45.428Z,100962.28
2023-07-18T18:49:25.981Z,100958.72
2023-07-18T18:51:55.418Z,100957.03
2023-07-18T18:54:23.475Z,100960.63
2023-07-18T18:56:53.901Z,100958.72
2023-07-18T18:59:21.982Z,100959.53
2023-07-18T19:01:51.255Z,100959.53
2023-07-18T19:04:20.792Z,100957.63
2023-07-18T19:06:49.042Z,100962.50
2023-07-18T19:09:16.968Z,100962.28
2023-07-18T19:11:44.938Z,100957.63
2023-07-18T19:14:12.947Z,100963.09
2023-07-18T19:16:41.496Z,100963.09
2023-07-18T19:19:11.611Z,100957.63
2023-07-18T19:21:40.978Z,100966.66
2023-07-18T19:24:08.976Z,100967.47
2023-07-18T19:26:37.237Z,100966.66
2023-07-18T19:29:05.217Z,100969.38
2023-07-18T19:31:33.210Z,100969.38
2023-07-18T19:34:01.152Z,100972.13
2023-07-18T19:36:29.125Z,100977.59
2023-07-18T19:38:58.485Z,100975.94
2023-07-18T19:41:26.454Z,100982.22
2023-07-18T19:43:54.484Z,100982.22
2023-07-18T19:46:23.995Z,100983.03
2023-07-18T19:48:52.310Z,100988.78
2023-07-18T19:51:20.515Z,100986.03
2023-07-18T19:53:48.670Z,100988.78
2023-07-18T19:56:18.348Z,100996.97
2023-07-18T19:58:46.280Z,100991.50
2023-07-18T20:01:14.301Z,100992.34
2023-07-18T20:03:57.559Z,100981.41
2023-07-18T20:06:27.872Z,100987.94
2023-07-18T20:08:56.140Z,100990.91
2023-07-18T20:11:25.693Z,100995.31
2023-07-18T20:13:53.643Z,100995.31
2023-07-18T20:16:21.683Z,100992.56
2023-07-18T20:18:52.575Z,101000.75
2023-07-18T20:21:23.985Z,100993.41
2023-07-18T20:23:51.943Z,101001.81
2023-07-18T20:26:20.479Z,100987.34
2023-07-18T20:28:49.834Z,101002.88
2023-07-18T20:31:17.986Z,100997.44
2023-07-18T20:33:47.085Z,101003.72
2023-07-18T20:36:15.389Z,101002.66
2023-07-18T20:38:44.852Z,100995.31
2023-07-18T20:41:12.811Z,100996.38
2023-07-18T20:43:41.638Z,100996.13
2023-07-18T20:46:12.778Z,100995.31
2023-07-18T20:48:40.840Z,100999.09
2023-07-18T20:51:09.190Z,101002.66
2023-07-18T20:53:37.150Z,100998.03
2023-07-18T20:56:05.700Z,100996.38
2023-07-18T20:58:33.843Z,100998.03
2023-07-18T21:01:01.877Z,101001.81
2023-07-18T21:03:31.363Z,100995.31
2023-07-18T21:05:59.610Z,101001.59
2023-07-18T21:08:27.569Z,101001.59
2023-07-18T21:10:55.548Z,100996.97
2023-07-18T21:13:23.547Z,101000.75
2023-07-18T21:15:51.846Z,101001.59
2023-07-18T21:18:19.870Z,100994.47
2023-07-18T21:20:49.194Z,100994.47
2023-07-18T21:23:17.177Z,100995.31
2023-07-18T21:25:45.152Z,100993.41
2023-07-18T21:28:13.110Z,100990.06
2023-07-18T21:30:41.063Z,100998.03
2023-07-18T21:33:09.322Z,100995.53
2023-07-18T21:35:37.617Z,100991.97
2023-07-18T21:38:07.462Z,100987.34
2023-07-18T21:40:35.789Z,100990.91
2023-07-18T21:43:03.709Z,100991.97
2023-07-18T21:45:31.995Z,100989.22
2023-07-18T21:48:00.055Z,100993.63
2023-07-18T21:50:28.097Z,100988.16
2023-07-18T21:52:56.060Z,100987.34
2023-07-18T21:55:25.710Z,100986.50
2023-07-18T21:57:53.635Z,100982.94
2023-07-18T22:00:21.566Z,100983.75
2023-07-18T22:02:49.696Z,100990.06
2023-07-18T22:05:18.146Z,100979.97
2023-07-18T22:07:46.315Z,100981.88
2023-07-18T22:10:15.596Z,100978.28
2023-07-18T22:12:45.136Z,100975.00
2023-07-18T22:15:13.380Z,100980.19
2023-07-18T22:17:41.654Z,100988.38
2023-07-18T22:20:10.419Z,100978.53
2023-07-18T22:22:40.394Z,100981.25
2023-07-18T22:25:09.365Z,100980.44
2023-07-18T22:27:37.285Z,100975.22
2023-07-18T22:30:09.512Z,100979.63
2023-07-18T22:32:37.483Z,100977.72
2023-07-18T22:35:06.256Z,100977.72
2023-07-18T22:37:34.720Z,100974.16
2023-07-18T22:40:02.675Z,100973.06
2023-07-18T22:42:30.614Z,100972.25
2023-07-18T22:44:58.857Z,100969.53
2023-07-18T22:47:28.211Z,100975.78
2023-07-18T22:49:56.197Z,100969.53
2023-07-18T22:52:24.184Z,100970.59
2023-07-18T22:54:52.594Z,100968.69
2023-07-18T22:57:20.558Z,100966.78
2023-07-18T22:59:49.168Z,100963.22
2023-07-18T23:02:17.274Z,100969.53
2023-07-18T23:04:47.456Z,100967.03
2023-07-18T23:07:16.066Z,100961.56
2023-07-18T23:09:44.032Z,100963.44
2023-07-18T23:12:13.108Z,100958.00
2023-07-18T23:14:41.352Z,100967.03
2023-07-18T23:17:09.535Z,100955.25
2023-07-18T23:19:37.540Z,100958.81
2023-07-18T23:22:07.692Z,100950.63
2023-07-18T23:24:35.936Z,100947.06
2023-07-18T23:27:03.898Z,100948.97
2023-07-18T23:29:31.827Z,100954.41
2023-07-18T23:31:59.808Z,100953.59
2023-07-18T23:34:27.853Z,100943.50
2023-07-18T23:36:56.124Z,100948.13
2023-07-18T23:39:25.489Z,100942.66
2023-07-18T23:41:53.411Z,100939.91
2023-07-18T23:44:21.389Z,100947.91
2023-07-18T23:46:49.616Z,100939.09
2023-07-18T23:49:17.584Z,100944.31
2023-07-18T23:51:45.517Z,100937.19
2023-07-18T23:54:13.474Z,100939.91
2023-07-18T23:56:43.062Z,100941.00
2023-07-18T23:59:11.004Z,100935.53
